sensor_id;sensor_type;location;lat;lon;timestamp;P1;durP1;ratioP1;P2;durP2;ratioP2
17650;SDS011;26663;59.302;18.082;2024-02-16T00:02:58;31.97;;;10.87;;
17650;SDS011;26663;59.302;18.082;2024-02-16T00:06:03;34.00;;;11.13;;
17650;SDS011;26663;59.302;18.082;2024-02-16T00:09:08;28.57;;;10.20;;
17650;SDS011;26663;59.302;18.082;2024-02-16T00:12:12;31.77;;;11.20;;
17650;SDS011;26663;59.302;18.082;2024-02-16T00:15:17;31.80;;;11.00;;
17650;SDS011;26663;59.302;18.082;2024-02-16T00:18:21;25.77;;;10.40;;
17650;SDS011;26663;59.302;18.082;2024-02-16T00:21:25;25.90;;;10.93;;
17650;SDS011;26663;59.302;18.082;2024-02-16T00:24:30;25.67;;;10.17;;
17650;SDS011;26663;59.302;18.082;2024-02-16T00:27:35;30.43;;;10.50;;
17650;SDS011;26663;59.302;18.082;2024-02-16T00:30:41;25.57;;;10.07;;
17650;SDS011;26663;59.302;18.082;2024-02-16T00:33:44;27.87;;;10.37;;
17650;SDS011;26663;59.302;18.082;2024-02-16T00:36:49;23.93;;;10.10;;
17650;SDS011;26663;59.302;18.082;2024-02-16T00:39:54;23.57;;;10.03;;
17650;SDS011;26663;59.302;18.082;2024-02-16T00:42:58;26.33;;;9.97;;
17650;SDS011;26663;59.302;18.082;2024-02-16T00:46:01;21.90;;;9.90;;
17650;SDS011;26663;59.302;18.082;2024-02-16T00:49:05;20.87;;;9.33;;
17650;SDS011;26663;59.302;18.082;2024-02-16T00:52:12;22.57;;;10.07;;
17650;SDS011;26663;59.302;18.082;2024-02-16T00:55:17;20.37;;;9.30;;
17650;SDS011;26663;59.302;18.082;2024-02-16T00:58:22;24.90;;;9.63;;
17650;SDS011;26663;59.302;18.082;2024-02-16T01:01:26;22.53;;;9.40;;
17650;SDS011;26663;59.302;18.082;2024-02-16T01:04:30;22.03;;;9.27;;
17650;SDS011;26663;59.302;18.082;2024-02-16T01:07:33;23.03;;;9.63;;
17650;SDS011;26663;59.302;18.082;2024-02-16T01:10:39;22.57;;;9.20;;
17650;SDS011;26663;59.302;18.082;2024-02-16T01:13:43;21.33;;;9.50;;
17650;SDS011;26663;59.302;18.082;2024-02-16T01:16:47;24.70;;;9.00;;
17650;SDS011;26663;59.302;18.082;2024-02-16T01:19:50;23.37;;;8.87;;
17650;SDS011;26663;59.302;18.082;2024-02-16T01:22:54;23.47;;;9.43;;
17650;SDS011;26663;59.302;18.082;2024-02-16T01:26:00;23.90;;;8.87;;
17650;SDS011;26663;59.302;18.082;2024-02-16T01:29:03;19.27;;;8.37;;
17650;SDS011;26663;59.302;18.082;2024-02-16T01:32:07;22.17;;;9.00;;
17650;SDS011;26663;59.302;18.082;2024-02-16T01:35:11;19.50;;;8.00;;
17650;SDS011;26663;59.302;18.082;2024-02-16T01:38:16;24.23;;;8.73;;
17650;SDS011;26663;59.302;18.082;2024-02-16T01:41:22;19.00;;;8.43;;
17650;SDS011;26663;59.302;18.082;2024-02-16T01:44:26;22.43;;;9.63;;
17650;SDS011;26663;59.302;18.082;2024-02-16T01:47:29;23.10;;;8.27;;
17650;SDS011;26663;59.302;18.082;2024-02-16T01:50:33;23.07;;;8.90;;
17650;SDS011;26663;59.302;18.082;2024-02-16T01:53:39;18.73;;;7.87;;
17650;SDS011;26663;59.302;18.082;2024-02-16T01:56:45;17.10;;;8.10;;
17650;SDS011;26663;59.302;18.082;2024-02-16T01:59:49;18.80;;;8.17;;
17650;SDS011;26663;59.302;18.082;2024-02-16T02:02:54;18.17;;;8.83;;
17650;SDS011;26663;59.302;18.082;2024-02-16T02:05:59;16.00;;;8.17;;
17650;SDS011;26663;59.302;18.082;2024-02-16T02:09:03;19.40;;;8.60;;
17650;SDS011;26663;59.302;18.082;2024-02-16T02:12:09;18.90;;;8.10;;
17650;SDS011;26663;59.302;18.082;2024-02-16T02:15:13;18.57;;;8.03;;
17650;SDS011;26663;59.302;18.082;2024-02-16T02:18:17;17.77;;;7.83;;
17650;SDS011;26663;59.302;18.082;2024-02-16T02:21:21;25.03;;;8.77;;
17650;SDS011;26663;59.302;18.082;2024-02-16T02:24:26;19.40;;;8.50;;
17650;SDS011;26663;59.302;18.082;2024-02-16T02:27:30;12.87;;;8.10;;
17650;SDS011;26663;59.302;18.082;2024-02-16T02:30:35;14.77;;;8.13;;
17650;SDS011;26663;59.302;18.082;2024-02-16T02:33:40;13.43;;;7.50;;
17650;SDS011;26663;59.302;18.082;2024-02-16T02:36:45;13.97;;;7.80;;
17650;SDS011;26663;59.302;18.082;2024-02-16T02:39:50;9.00;;;6.90;;
17650;SDS011;26663;59.302;18.082;2024-02-16T02:42:54;15.20;;;7.70;;
17650;SDS011;26663;59.302;18.082;2024-02-16T02:45:57;11.60;;;7.13;;
17650;SDS011;26663;59.302;18.082;2024-02-16T02:49:02;10.13;;;7.13;;
17650;SDS011;26663;59.302;18.082;2024-02-16T02:52:06;7.30;;;6.47;;
17650;SDS011;26663;59.302;18.082;2024-02-16T02:55:11;9.73;;;7.10;;
17650;SDS011;26663;59.302;18.082;2024-02-16T02:58:15;9.50;;;6.80;;
17650;SDS011;26663;59.302;18.082;2024-02-16T03:01:20;9.00;;;7.20;;
17650;SDS011;26663;59.302;18.082;2024-02-16T03:04:24;8.73;;;6.90;;
17650;SDS011;26663;59.302;18.082;2024-02-16T03:07:28;7.03;;;6.30;;
17650;SDS011;26663;59.302;18.082;2024-02-16T03:10:34;6.30;;;5.77;;
17650;SDS011;26663;59.302;18.082;2024-02-16T03:13:38;9.03;;;7.33;;
17650;SDS011;26663;59.302;18.082;2024-02-16T03:16:43;6.33;;;5.83;;
17650;SDS011;26663;59.302;18.082;2024-02-16T03:19:47;8.77;;;6.77;;
17650;SDS011;26663;59.302;18.082;2024-02-16T03:22:51;6.17;;;5.63;;
17650;SDS011;26663;59.302;18.082;2024-02-16T03:25:56;6.37;;;5.60;;
17650;SDS011;26663;59.302;18.082;2024-02-16T03:29:00;6.50;;;5.90;;
17650;SDS011;26663;59.302;18.082;2024-02-16T03:32:04;7.10;;;6.40;;
17650;SDS011;26663;59.302;18.082;2024-02-16T03:35:08;6.60;;;5.67;;
17650;SDS011;26663;59.302;18.082;2024-02-16T03:38:12;6.93;;;6.03;;
17650;SDS011;26663;59.302;18.082;2024-02-16T03:41:19;6.80;;;6.20;;
17650;SDS011;26663;59.302;18.082;2024-02-16T03:44:24;7.00;;;6.30;;
17650;SDS011;26663;59.302;18.082;2024-02-16T03:47:28;7.30;;;6.60;;
17650;SDS011;26663;59.302;18.082;2024-02-16T03:50:32;6.03;;;5.53;;
17650;SDS011;26663;59.302;18.082;2024-02-16T03:53:37;6.50;;;5.97;;
17650;SDS011;26663;59.302;18.082;2024-02-16T03:56:43;6.63;;;6.07;;
17650;SDS011;26663;59.302;18.082;2024-02-16T03:59:47;6.33;;;5.83;;
17650;SDS011;26663;59.302;18.082;2024-02-16T04:02:51;6.13;;;5.60;;
17650;SDS011;26663;59.302;18.082;2024-02-16T04:05:55;6.17;;;5.57;;
17650;SDS011;26663;59.302;18.082;2024-02-16T04:09:02;5.83;;;5.23;;
17650;SDS011;26663;59.302;18.082;2024-02-16T04:12:09;6.27;;;5.77;;
17650;SDS011;26663;59.302;18.082;2024-02-16T04:15:13;4.90;;;4.60;;
17650;SDS011;26663;59.302;18.082;2024-02-16T04:18:17;5.10;;;4.70;;
17650;SDS011;26663;59.302;18.082;2024-02-16T04:21:22;4.93;;;4.43;;
17650;SDS011;26663;59.302;18.082;2024-02-16T04:24:26;4.17;;;3.97;;
17650;SDS011;26663;59.302;18.082;2024-02-16T04:27:31;4.83;;;4.53;;
17650;SDS011;26663;59.302;18.082;2024-02-16T04:30:35;5.00;;;4.70;;
17650;SDS011;26663;59.302;18.082;2024-02-16T04:33:39;4.43;;;4.13;;
17650;SDS011;26663;59.302;18.082;2024-02-16T04:36:43;4.73;;;4.50;;
17650;SDS011;26663;59.302;18.082;2024-02-16T04:39:47;4.93;;;4.50;;
17650;SDS011;26663;59.302;18.082;2024-02-16T04:42:52;4.17;;;3.93;;
17650;SDS011;26663;59.302;18.082;2024-02-16T04:45:57;3.60;;;3.50;;
17650;SDS011;26663;59.302;18.082;2024-02-16T04:49:01;3.70;;;3.60;;
17650;SDS011;26663;59.302;18.082;2024-02-16T04:52:05;3.70;;;3.50;;
17650;SDS011;26663;59.302;18.082;2024-02-16T04:55:10;3.43;;;3.33;;
17650;SDS011;26663;59.302;18.082;2024-02-16T04:58:16;3.10;;;3.00;;
17650;SDS011;26663;59.302;18.082;2024-02-16T05:01:20;3.20;;;3.10;;
17650;SDS011;26663;59.302;18.082;2024-02-16T05:04:24;3.47;;;3.37;;
17650;SDS011;26663;59.302;18.082;2024-02-16T05:07:28;3.30;;;3.20;;
17650;SDS011;26663;59.302;18.082;2024-02-16T05:10:33;3.27;;;3.17;;
17650;SDS011;26663;59.302;18.082;2024-02-16T05:13:39;3.00;;;3.00;;
17650;SDS011;26663;59.302;18.082;2024-02-16T05:16:44;2.77;;;2.77;;
17650;SDS011;26663;59.302;18.082;2024-02-16T05:19:48;2.83;;;2.73;;
17650;SDS011;26663;59.302;18.082;2024-02-16T05:22:53;2.90;;;2.80;;
17650;SDS011;26663;59.302;18.082;2024-02-16T05:25:56;2.77;;;2.77;;
17650;SDS011;26663;59.302;18.082;2024-02-16T05:29:02;2.83;;;2.73;;
17650;SDS011;26663;59.302;18.082;2024-02-16T05:32:06;3.10;;;3.00;;
17650;SDS011;26663;59.302;18.082;2024-02-16T05:35:10;2.70;;;2.70;;
17650;SDS011;26663;59.302;18.082;2024-02-16T05:38:15;3.13;;;2.97;;
17650;SDS011;26663;59.302;18.082;2024-02-16T05:41:34;2.77;;;2.67;;
17650;SDS011;26663;59.302;18.082;2024-02-16T05:44:42;2.83;;;2.63;;
17650;SDS011;26663;59.302;18.082;2024-02-16T05:47:46;2.80;;;2.80;;
17650;SDS011;26663;59.302;18.082;2024-02-16T05:50:50;2.60;;;2.60;;
17650;SDS011;26663;59.302;18.082;2024-02-16T05:53:54;2.50;;;2.50;;
17650;SDS011;26663;59.302;18.082;2024-02-16T05:56:57;2.50;;;2.50;;
17650;SDS011;26663;59.302;18.082;2024-02-16T06:00:03;2.80;;;2.70;;
17650;SDS011;26663;59.302;18.082;2024-02-16T06:03:08;2.30;;;2.30;;
17650;SDS011;26663;59.302;18.082;2024-02-16T06:06:12;2.40;;;2.40;;
17650;SDS011;26663;59.302;18.082;2024-02-16T06:09:16;2.37;;;2.20;;
17650;SDS011;26663;59.302;18.082;2024-02-16T06:12:23;2.33;;;2.33;;
17650;SDS011;26663;59.302;18.082;2024-02-16T06:15:29;2.50;;;2.40;;
17650;SDS011;26663;59.302;18.082;2024-02-16T06:18:32;2.03;;;2.03;;
17650;SDS011;26663;59.302;18.082;2024-02-16T06:21:36;2.00;;;2.00;;
17650;SDS011;26663;59.302;18.082;2024-02-16T06:24:40;2.00;;;2.00;;
17650;SDS011;26663;59.302;18.082;2024-02-16T06:27:44;2.30;;;2.30;;
17650;SDS011;26663;59.302;18.082;2024-02-16T06:30:50;2.00;;;2.00;;
17650;SDS011;26663;59.302;18.082;2024-02-16T06:33:54;2.10;;;2.10;;
17650;SDS011;26663;59.302;18.082;2024-02-16T06:36:58;1.50;;;1.40;;
17650;SDS011;26663;59.302;18.082;2024-02-16T06:40:02;1.80;;;1.80;;
17650;SDS011;26663;59.302;18.082;2024-02-16T06:43:07;1.70;;;1.70;;
17650;SDS011;26663;59.302;18.082;2024-02-16T06:46:13;1.80;;;1.80;;
17650;SDS011;26663;59.302;18.082;2024-02-16T06:49:16;1.47;;;1.47;;
17650;SDS011;26663;59.302;18.082;2024-02-16T06:52:20;1.90;;;1.90;;
17650;SDS011;26663;59.302;18.082;2024-02-16T06:55:25;1.57;;;1.57;;
17650;SDS011;26663;59.302;18.082;2024-02-16T06:58:29;1.57;;;1.57;;
17650;SDS011;26663;59.302;18.082;2024-02-16T07:01:35;2.10;;;1.60;;
17650;SDS011;26663;59.302;18.082;2024-02-16T07:04:39;1.50;;;1.50;;
17650;SDS011;26663;59.302;18.082;2024-02-16T07:07:43;1.50;;;1.50;;
17650;SDS011;26663;59.302;18.082;2024-02-16T07:10:47;1.60;;;1.60;;
17650;SDS011;26663;59.302;18.082;2024-02-16T07:13:53;1.50;;;1.40;;
17650;SDS011;26663;59.302;18.082;2024-02-16T07:16:59;1.57;;;1.50;;
17650;SDS011;26663;59.302;18.082;2024-02-16T07:20:03;1.50;;;1.50;;
17650;SDS011;26663;59.302;18.082;2024-02-16T07:23:08;1.50;;;1.50;;
17650;SDS011;26663;59.302;18.082;2024-02-16T07:26:12;1.80;;;1.70;;
17650;SDS011;26663;59.302;18.082;2024-02-16T07:29:16;1.70;;;1.70;;
17650;SDS011;26663;59.302;18.082;2024-02-16T07:32:21;1.57;;;1.57;;
17650;SDS011;26663;59.302;18.082;2024-02-16T07:35:25;1.80;;;1.70;;
17650;SDS011;26663;59.302;18.082;2024-02-16T07:38:29;1.70;;;1.70;;
17650;SDS011;26663;59.302;18.082;2024-02-16T07:41:33;1.50;;;1.50;;
17650;SDS011;26663;59.302;18.082;2024-02-16T07:44:37;1.47;;;1.47;;
17650;SDS011;26663;59.302;18.082;2024-02-16T07:47:42;1.50;;;1.50;;
17650;SDS011;26663;59.302;18.082;2024-02-16T07:50:46;1.73;;;1.67;;
17650;SDS011;26663;59.302;18.082;2024-02-16T07:53:52;1.60;;;1.60;;
17650;SDS011;26663;59.302;18.082;2024-02-16T07:56:56;2.30;;;1.60;;
17650;SDS011;26663;59.302;18.082;2024-02-16T08:00:03;2.00;;;1.90;;
17650;SDS011;26663;59.302;18.082;2024-02-16T08:03:10;1.67;;;1.60;;
17650;SDS011;26663;59.302;18.082;2024-02-16T08:06:14;1.60;;;1.60;;
17650;SDS011;26663;59.302;18.082;2024-02-16T08:09:18;1.80;;;1.70;;
17650;SDS011;26663;59.302;18.082;2024-02-16T08:12:22;1.83;;;1.73;;
17650;SDS011;26663;59.302;18.082;2024-02-16T08:15:27;1.70;;;1.60;;
17650;SDS011;26663;59.302;18.082;2024-02-16T08:18:33;1.57;;;1.57;;
17650;SDS011;26663;59.302;18.082;2024-02-16T08:21:37;1.50;;;1.50;;
17650;SDS011;26663;59.302;18.082;2024-02-16T08:24:41;1.47;;;1.47;;
17650;SDS011;26663;59.302;18.082;2024-02-16T08:27:48;2.37;;;2.27;;
17650;SDS011;26663;59.302;18.082;2024-02-16T08:30:52;2.17;;;2.00;;
17650;SDS011;26663;59.302;18.082;2024-02-16T08:33:58;1.20;;;1.20;;
17650;SDS011;26663;59.302;18.082;2024-02-16T08:37:05;1.50;;;1.40;;
17650;SDS011;26663;59.302;18.082;2024-02-16T08:40:09;2.17;;;1.57;;
17650;SDS011;26663;59.302;18.082;2024-02-16T08:43:16;1.50;;;1.40;;
17650;SDS011;26663;59.302;18.082;2024-02-16T08:46:20;1.17;;;1.17;;
17650;SDS011;26663;59.302;18.082;2024-02-16T08:49:26;1.43;;;1.00;;
17650;SDS011;26663;59.302;18.082;2024-02-16T08:52:31;1.20;;;1.20;;
17650;SDS011;26663;59.302;18.082;2024-02-16T08:55:34;1.20;;;1.20;;
17650;SDS011;26663;59.302;18.082;2024-02-16T08:58:38;1.60;;;0.93;;
17650;SDS011;26663;59.302;18.082;2024-02-16T09:01:42;1.10;;;1.10;;
17650;SDS011;26663;59.302;18.082;2024-02-16T09:04:47;1.40;;;1.40;;
17650;SDS011;26663;59.302;18.082;2024-02-16T09:07:51;1.20;;;1.20;;
17650;SDS011;26663;59.302;18.082;2024-02-16T09:10:55;1.10;;;1.10;;
17650;SDS011;26663;59.302;18.082;2024-02-16T09:13:59;2.50;;;1.33;;
17650;SDS011;26663;59.302;18.082;2024-02-16T09:17:03;1.27;;;1.27;;
17650;SDS011;26663;59.302;18.082;2024-02-16T09:20:10;3.20;;;1.37;;
17650;SDS011;26663;59.302;18.082;2024-02-16T09:23:15;1.63;;;1.40;;
17650;SDS011;26663;59.302;18.082;2024-02-16T09:26:18;1.20;;;1.20;;
17650;SDS011;26663;59.302;18.082;2024-02-16T09:29:22;1.23;;;1.20;;
17650;SDS011;26663;59.302;18.082;2024-02-16T09:32:26;1.30;;;1.30;;
17650;SDS011;26663;59.302;18.082;2024-02-16T09:35:32;1.30;;;1.30;;
17650;SDS011;26663;59.302;18.082;2024-02-16T09:38:35;1.10;;;1.10;;
17650;SDS011;26663;59.302;18.082;2024-02-16T09:41:41;1.63;;;1.40;;
17650;SDS011;26663;59.302;18.082;2024-02-16T09:44:46;1.40;;;1.40;;
17650;SDS011;26663;59.302;18.082;2024-02-16T09:47:50;1.40;;;1.40;;
17650;SDS011;26663;59.302;18.082;2024-02-16T09:51:06;3.97;;;1.93;;
17650;SDS011;26663;59.302;18.082;2024-02-16T09:54:10;1.30;;;1.30;;
17650;SDS011;26663;59.302;18.082;2024-02-16T09:57:16;1.20;;;1.20;;
17650;SDS011;26663;59.302;18.082;2024-02-16T10:00:21;1.70;;;1.40;;
17650;SDS011;26663;59.302;18.082;2024-02-16T10:03:26;2.10;;;1.50;;
17650;SDS011;26663;59.302;18.082;2024-02-16T10:06:32;1.40;;;1.40;;
17650;SDS011;26663;59.302;18.082;2024-02-16T10:09:36;1.40;;;1.40;;
17650;SDS011;26663;59.302;18.082;2024-02-16T10:12:40;1.50;;;1.50;;
17650;SDS011;26663;59.302;18.082;2024-02-16T10:15:44;1.23;;;1.23;;
17650;SDS011;26663;59.302;18.082;2024-02-16T10:18:49;1.40;;;1.40;;
17650;SDS011;26663;59.302;18.082;2024-02-16T10:22:04;1.53;;;1.43;;
17650;SDS011;26663;59.302;18.082;2024-02-16T10:25:09;1.50;;;1.50;;
17650;SDS011;26663;59.302;18.082;2024-02-16T10:28:16;2.13;;;1.60;;
17650;SDS011;26663;59.302;18.082;2024-02-16T10:31:22;1.73;;;1.63;;
17650;SDS011;26663;59.302;18.082;2024-02-16T10:34:30;1.60;;;1.60;;
17650;SDS011;26663;59.302;18.082;2024-02-16T10:37:37;1.40;;;1.40;;
17650;SDS011;26663;59.302;18.082;2024-02-16T10:40:42;1.30;;;1.30;;
17650;SDS011;26663;59.302;18.082;2024-02-16T10:43:47;1.30;;;1.30;;
17650;SDS011;26663;59.302;18.082;2024-02-16T10:46:52;1.30;;;1.30;;
17650;SDS011;26663;59.302;18.082;2024-02-16T10:49:58;1.42;;;1.33;;
17650;SDS011;26663;59.302;18.082;2024-02-16T10:53:04;1.17;;;1.17;;
17650;SDS011;26663;59.302;18.082;2024-02-16T10:56:12;1.40;;;1.40;;
17650;SDS011;26663;59.302;18.082;2024-02-16T10:59:16;1.70;;;1.60;;
17650;SDS011;26663;59.302;18.082;2024-02-16T11:02:20;1.27;;;1.27;;
17650;SDS011;26663;59.302;18.082;2024-02-16T11:05:34;1.60;;;1.30;;
17650;SDS011;26663;59.302;18.082;2024-02-16T11:08:40;1.40;;;1.40;;
17650;SDS011;26663;59.302;18.082;2024-02-16T11:11:50;1.40;;;1.30;;
17650;SDS011;26663;59.302;18.082;2024-02-16T11:14:56;1.30;;;1.30;;
17650;SDS011;26663;59.302;18.082;2024-02-16T11:18:00;4.35;;;1.20;;
17650;SDS011;26663;59.302;18.082;2024-02-16T11:21:05;1.30;;;1.20;;
17650;SDS011;26663;59.302;18.082;2024-02-16T11:24:11;1.77;;;1.50;;
17650;SDS011;26663;59.302;18.082;2024-02-16T11:27:17;1.52;;;1.52;;
17650;SDS011;26663;59.302;18.082;2024-02-16T11:30:23;1.77;;;1.77;;
17650;SDS011;26663;59.302;18.082;2024-02-16T11:33:28;4.22;;;1.70;;
17650;SDS011;26663;59.302;18.082;2024-02-16T11:36:32;2.72;;;1.50;;
17650;SDS011;26663;59.302;18.082;2024-02-16T11:39:39;1.88;;;1.70;;
17650;SDS011;26663;59.302;18.082;2024-02-16T11:42:46;1.52;;;1.52;;
17650;SDS011;26663;59.302;18.082;2024-02-16T11:45:50;1.75;;;1.65;;
17650;SDS011;26663;59.302;18.082;2024-02-16T11:49:03;2.33;;;1.90;;
17650;SDS011;26663;59.302;18.082;2024-02-16T11:52:08;1.60;;;1.60;;
17650;SDS011;26663;59.302;18.082;2024-02-16T11:55:14;1.70;;;1.70;;
17650;SDS011;26663;59.302;18.082;2024-02-16T11:58:20;2.70;;;1.48;;
17650;SDS011;26663;59.302;18.082;2024-02-16T12:01:24;1.65;;;1.65;;
17650;SDS011;26663;59.302;18.082;2024-02-16T12:04:29;2.28;;;1.70;;
17650;SDS011;26663;59.302;18.082;2024-02-16T12:07:38;3.05;;;1.60;;
17650;SDS011;26663;59.302;18.082;2024-02-16T12:10:44;2.63;;;1.90;;
17650;SDS011;26663;59.302;18.082;2024-02-16T12:13:50;1.65;;;1.60;;
17650;SDS011;26663;59.302;18.082;2024-02-16T12:16:55;1.60;;;1.50;;
17650;SDS011;26663;59.302;18.082;2024-02-16T12:19:59;2.10;;;2.00;;
17650;SDS011;26663;59.302;18.082;2024-02-16T12:23:11;1.40;;;1.40;;
17650;SDS011;26663;59.302;18.082;2024-02-16T12:26:17;1.40;;;1.40;;
17650;SDS011;26663;59.302;18.082;2024-02-16T12:29:20;1.40;;;1.30;;
17650;SDS011;26663;59.302;18.082;2024-02-16T12:32:25;1.75;;;1.42;;
17650;SDS011;26663;59.302;18.082;2024-02-16T12:35:29;1.10;;;1.10;;
17650;SDS011;26663;59.302;18.082;2024-02-16T12:38:33;1.10;;;1.10;;
17650;SDS011;26663;59.302;18.082;2024-02-16T12:41:38;1.10;;;1.10;;
17650;SDS011;26663;59.302;18.082;2024-02-16T12:44:43;1.20;;;1.20;;
17650;SDS011;26663;59.302;18.082;2024-02-16T12:47:47;1.02;;;1.02;;
17650;SDS011;26663;59.302;18.082;2024-02-16T12:50:52;1.40;;;1.15;;
17650;SDS011;26663;59.302;18.082;2024-02-16T12:53:56;1.17;;;1.17;;
17650;SDS011;26663;59.302;18.082;2024-02-16T12:57:01;1.75;;;1.27;;
17650;SDS011;26663;59.302;18.082;2024-02-16T13:00:06;1.10;;;1.10;;
17650;SDS011;26663;59.302;18.082;2024-02-16T13:03:10;1.05;;;0.98;;
17650;SDS011;26663;59.302;18.082;2024-02-16T13:06:14;1.35;;;0.98;;
17650;SDS011;26663;59.302;18.082;2024-02-16T13:09:18;1.20;;;1.20;;
17650;SDS011;26663;59.302;18.082;2024-02-16T13:12:24;1.00;;;1.00;;
17650;SDS011;26663;59.302;18.082;2024-02-16T13:15:28;1.27;;;1.20;;
17650;SDS011;26663;59.302;18.082;2024-02-16T13:18:32;0.90;;;0.90;;
17650;SDS011;26663;59.302;18.082;2024-02-16T13:21:35;1.00;;;1.00;;
17650;SDS011;26663;59.302;18.082;2024-02-16T13:24:39;1.02;;;1.02;;
17650;SDS011;26663;59.302;18.082;2024-02-16T13:27:45;1.08;;;1.08;;
17650;SDS011;26663;59.302;18.082;2024-02-16T13:30:49;1.30;;;1.25;;
17650;SDS011;26663;59.302;18.082;2024-02-16T13:33:53;1.10;;;1.10;;
17650;SDS011;26663;59.302;18.082;2024-02-16T13:36:57;1.13;;;1.10;;
17650;SDS011;26663;59.302;18.082;2024-02-16T13:40:01;2.20;;;1.13;;
17650;SDS011;26663;59.302;18.082;2024-02-16T13:43:10;1.10;;;1.10;;
17650;SDS011;26663;59.302;18.082;2024-02-16T13:46:14;2.83;;;0.90;;
17650;SDS011;26663;59.302;18.082;2024-02-16T13:49:20;1.15;;;1.00;;
17650;SDS011;26663;59.302;18.082;2024-02-16T13:52:24;4.93;;;1.10;;
17650;SDS011;26663;59.302;18.082;2024-02-16T13:55:28;2.85;;;1.20;;
17650;SDS011;26663;59.302;18.082;2024-02-16T13:58:33;1.90;;;1.23;;
17650;SDS011;26663;59.302;18.082;2024-02-16T14:01:39;1.10;;;1.10;;
17650;SDS011;26663;59.302;18.082;2024-02-16T14:04:43;1.42;;;1.30;;
17650;SDS011;26663;59.302;18.082;2024-02-16T14:07:48;1.10;;;1.10;;
17650;SDS011;26663;59.302;18.082;2024-02-16T14:11:02;3.03;;;1.38;;
17650;SDS011;26663;59.302;18.082;2024-02-16T14:14:07;1.15;;;1.15;;
17650;SDS011;26663;59.302;18.082;2024-02-16T14:17:20;1.00;;;1.00;;
17650;SDS011;26663;59.302;18.082;2024-02-16T14:20:24;1.30;;;1.30;;
17650;SDS011;26663;59.302;18.082;2024-02-16T14:23:28;1.50;;;1.50;;
17650;SDS011;26663;59.302;18.082;2024-02-16T14:26:32;1.00;;;1.00;;
17650;SDS011;26663;59.302;18.082;2024-02-16T14:29:37;1.88;;;1.20;;
17650;SDS011;26663;59.302;18.082;2024-02-16T14:32:41;1.02;;;1.02;;
17650;SDS011;26663;59.302;18.082;2024-02-16T14:35:45;1.17;;;1.17;;
17650;SDS011;26663;59.302;18.082;2024-02-16T14:38:50;1.45;;;1.40;;
17650;SDS011;26663;59.302;18.082;2024-02-16T14:41:56;1.42;;;1.20;;
17650;SDS011;26663;59.302;18.082;2024-02-16T14:45:01;1.40;;;1.40;;
17650;SDS011;26663;59.302;18.082;2024-02-16T14:48:06;1.15;;;1.05;;
17650;SDS011;26663;59.302;18.082;2024-02-16T14:51:10;1.92;;;1.20;;
17650;SDS011;26663;59.302;18.082;2024-02-16T14:54:14;1.17;;;1.17;;
17650;SDS011;26663;59.302;18.082;2024-02-16T14:57:18;1.00;;;1.00;;
17650;SDS011;26663;59.302;18.082;2024-02-16T15:00:26;1.20;;;1.20;;
17650;SDS011;26663;59.302;18.082;2024-02-16T15:03:30;1.10;;;1.10;;
17650;SDS011;26663;59.302;18.082;2024-02-16T15:06:34;1.10;;;1.10;;
17650;SDS011;26663;59.302;18.082;2024-02-16T15:09:39;1.30;;;1.30;;
17650;SDS011;26663;59.302;18.082;2024-02-16T15:12:43;1.20;;;1.20;;
17650;SDS011;26663;59.302;18.082;2024-02-16T15:15:49;1.50;;;1.33;;
17650;SDS011;26663;59.302;18.082;2024-02-16T15:18:53;1.33;;;1.33;;
17650;SDS011;26663;59.302;18.082;2024-02-16T15:21:57;1.50;;;1.40;;
17650;SDS011;26663;59.302;18.082;2024-02-16T15:25:01;1.50;;;1.40;;
17650;SDS011;26663;59.302;18.082;2024-02-16T15:28:05;1.40;;;1.40;;
17650;SDS011;26663;59.302;18.082;2024-02-16T15:31:10;1.70;;;1.70;;
17650;SDS011;26663;59.302;18.082;2024-02-16T15:34:14;1.80;;;1.70;;
17650;SDS011;26663;59.302;18.082;2024-02-16T15:37:19;1.60;;;1.50;;
17650;SDS011;26663;59.302;18.082;2024-02-16T15:40:23;1.55;;;1.52;;
17650;SDS011;26663;59.302;18.082;2024-02-16T15:43:27;1.70;;;1.67;;
17650;SDS011;26663;59.302;18.082;2024-02-16T15:46:32;1.60;;;1.60;;
17650;SDS011;26663;59.302;18.082;2024-02-16T15:49:37;1.83;;;1.83;;
17650;SDS011;26663;59.302;18.082;2024-02-16T15:52:41;1.90;;;1.77;;
17650;SDS011;26663;59.302;18.082;2024-02-16T15:55:45;2.00;;;1.90;;
17650;SDS011;26663;59.302;18.082;2024-02-16T15:58:48;2.13;;;2.03;;
17650;SDS011;26663;59.302;18.082;2024-02-16T16:01:55;2.47;;;1.85;;
17650;SDS011;26663;59.302;18.082;2024-02-16T16:05:01;1.73;;;1.73;;
17650;SDS011;26663;59.302;18.082;2024-02-16T16:08:05;2.00;;;2.00;;
17650;SDS011;26663;59.302;18.082;2024-02-16T16:11:09;2.17;;;2.17;;
17650;SDS011;26663;59.302;18.082;2024-02-16T16:14:13;2.90;;;2.70;;
17650;SDS011;26663;59.302;18.082;2024-02-16T16:17:18;3.10;;;2.97;;
17650;SDS011;26663;59.302;18.082;2024-02-16T16:20:22;3.20;;;3.10;;
17650;SDS011;26663;59.302;18.082;2024-02-16T16:23:26;4.40;;;4.00;;
17650;SDS011;26663;59.302;18.082;2024-02-16T16:26:31;4.68;;;4.32;;
17650;SDS011;26663;59.302;18.082;2024-02-16T16:29:34;6.95;;;5.78;;
17650;SDS011;26663;59.302;18.082;2024-02-16T16:32:40;9.15;;;6.35;;
17650;SDS011;26663;59.302;18.082;2024-02-16T16:35:44;9.13;;;6.30;;
17650;SDS011;26663;59.302;18.082;2024-02-16T16:38:48;13.60;;;8.35;;
17650;SDS011;26663;59.302;18.082;2024-02-16T16:41:52;13.45;;;9.02;;
17650;SDS011;26663;59.302;18.082;2024-02-16T16:44:57;18.25;;;10.63;;
17650;SDS011;26663;59.302;18.082;2024-02-16T16:48:02;19.73;;;11.68;;
17650;SDS011;26663;59.302;18.082;2024-02-16T16:51:06;30.50;;;14.52;;
17650;SDS011;26663;59.302;18.082;2024-02-16T16:54:10;27.20;;;14.77;;
17650;SDS011;26663;59.302;18.082;2024-02-16T16:57:14;23.15;;;13.68;;
17650;SDS011;26663;59.302;18.082;2024-02-16T17:00:21;25.55;;;13.52;;
17650;SDS011;26663;59.302;18.082;2024-02-16T17:03:27;33.72;;;14.55;;
17650;SDS011;26663;59.302;18.082;2024-02-16T17:06:31;24.00;;;13.48;;
17650;SDS011;26663;59.302;18.082;2024-02-16T17:09:36;27.25;;;14.13;;
17650;SDS011;26663;59.302;18.082;2024-02-16T17:12:39;31.90;;;15.05;;
17650;SDS011;26663;59.302;18.082;2024-02-16T17:15:47;29.92;;;14.95;;
17650;SDS011;26663;59.302;18.082;2024-02-16T17:18:53;28.88;;;14.82;;
17650;SDS011;26663;59.302;18.082;2024-02-16T17:21:57;27.23;;;13.63;;
17650;SDS011;26663;59.302;18.082;2024-02-16T17:25:00;27.85;;;13.73;;
17650;SDS011;26663;59.302;18.082;2024-02-16T17:28:06;23.50;;;12.40;;
17650;SDS011;26663;59.302;18.082;2024-02-16T17:31:09;23.55;;;12.38;;
17650;SDS011;26663;59.302;18.082;2024-02-16T17:34:15;20.23;;;11.10;;
17650;SDS011;26663;59.302;18.082;2024-02-16T17:37:19;23.08;;;10.93;;
17650;SDS011;26663;59.302;18.082;2024-02-16T17:40:24;18.38;;;10.40;;
17650;SDS011;26663;59.302;18.082;2024-02-16T17:43:27;17.00;;;10.77;;
17650;SDS011;26663;59.302;18.082;2024-02-16T17:46:31;15.38;;;10.10;;
17650;SDS011;26663;59.302;18.082;2024-02-16T17:49:37;18.63;;;9.85;;
17650;SDS011;26663;59.302;18.082;2024-02-16T17:52:41;13.55;;;8.38;;
17650;SDS011;26663;59.302;18.082;2024-02-16T17:55:45;10.57;;;7.75;;
17650;SDS011;26663;59.302;18.082;2024-02-16T17:58:49;10.95;;;8.15;;
17650;SDS011;26663;59.302;18.082;2024-02-16T18:01:53;10.52;;;7.78;;
17650;SDS011;26663;59.302;18.082;2024-02-16T18:04:58;10.68;;;7.45;;
17650;SDS011;26663;59.302;18.082;2024-02-16T18:08:02;10.50;;;7.40;;
17650;SDS011;26663;59.302;18.082;2024-02-16T18:11:07;10.57;;;7.20;;
17650;SDS011;26663;59.302;18.082;2024-02-16T18:14:11;11.23;;;7.30;;